<?xml version="1.0" encoding="UTF-8"?>
<gpx version="1.0" creator="Trackator" xmlns:xsi="http://www.w3.org/2001/XMLSchema-instance" xmlns="http://www.topografix.com/GPX/1/0" xmlns:topografix="http://www.topografix.com/GPX/Private/TopoGrafix/0/1" xsi:schemaLocation="http://www.topografix.com/GPX/1/0 http://www.topografix.com/GPX/1/0/gpx.xsd http://www.topografix.com/GPX/Private/TopoGrafix/0/1 http://www.topografix.com/GPX/Private/TopoGrafix/0/1/topografix.xsd">
<metadata>
<link href="http://www.trackalia.com/trackatorweb.php">
<text>Trackator</text>
</link>
</metadata>
<time>2017-10-25T17:56:20Z</time>
<trk>
<name>Track: </name>
<desc>Paragliding</desc>
<trkseg>
<trkpt lat="38.2318539" lon="-1.1199370">
<ele>434</ele>
<time>2017-10-25T17:56:20Z</time>
</trkpt>
<trkpt lat="38.2319853" lon="-1.1195663">
<ele>437</ele>
<time>2017-10-25T17:56:26Z</time>
</trkpt>
<trkpt lat="38.2322224" lon="-1.1191354">
<ele>439</ele>
<time>2017-10-25T17:56:32Z</time>
</trkpt>
<trkpt lat="38.2322808" lon="-1.1187811">
<ele>441</ele>
<time>2017-10-25T17:56:38Z</time>
</trkpt>
<trkpt lat="38.2324067" lon="-1.1184104">
<ele>443</ele>
<time>2017-10-25T17:56:44Z</time>
</trkpt>
<trkpt lat="38.2324967" lon="-1.1180570">
<ele>445</ele>
<time>2017-10-25T17:56:50Z</time>
</trkpt>
<trkpt lat="38.2325393" lon="-1.1177552">
<ele>448</ele>
<time>2017-10-25T17:56:56Z</time>
</trkpt>
<trkpt lat="38.2325406" lon="-1.1174281">
<ele>453</ele>
<time>2017-10-25T17:57:02Z</time>
</trkpt>
<trkpt lat="38.2324785" lon="-1.1171767">
<ele>456</ele>
<time>2017-10-25T17:57:08Z</time>
</trkpt>
<trkpt lat="38.2325586" lon="-1.1168235">
<ele>456</ele>
<time>2017-10-25T17:57:14Z</time>
</trkpt>
<trkpt lat="38.2326214" lon="-1.1164589">
<ele>455</ele>
<time>2017-10-25T17:57:20Z</time>
</trkpt>
<trkpt lat="38.2326254" lon="-1.1162011">
<ele>454</ele>
<time>2017-10-25T17:57:26Z</time>
</trkpt>
<trkpt lat="38.2326669" lon="-1.1159964">
<ele>454</ele>
<time>2017-10-25T17:57:32Z</time>
</trkpt>
<trkpt lat="38.2326409" lon="-1.1157644">
<ele>454</ele>
<time>2017-10-25T17:57:38Z</time>
</trkpt>
<trkpt lat="38.2326003" lon="-1.1154588">
<ele>452</ele>
<time>2017-10-25T17:57:44Z</time>
</trkpt>
<trkpt lat="38.2325672" lon="-1.1151861">
<ele>451</ele>
<time>2017-10-25T17:57:50Z</time>
</trkpt>
<trkpt lat="38.2325937" lon="-1.1149078">
<ele>451</ele>
<time>2017-10-25T17:57:56Z</time>
</trkpt>
<trkpt lat="38.2326013" lon="-1.1145878">
<ele>451</ele>
<time>2017-10-25T17:58:02Z</time>
</trkpt>
<trkpt lat="38.2325734" lon="-1.1143395">
<ele>451</ele>
<time>2017-10-25T17:58:08Z</time>
</trkpt>
<trkpt lat="38.2325913" lon="-1.1139637">
<ele>451</ele>
<time>2017-10-25T17:58:14Z</time>
</trkpt>
<trkpt lat="38.2325989" lon="-1.1136453">
<ele>452</ele>
<time>2017-10-25T17:58:20Z</time>
</trkpt>
<trkpt lat="38.2325741" lon="-1.1132585">
<ele>452</ele>
<time>2017-10-25T17:58:26Z</time>
</trkpt>
<trkpt lat="38.2325308" lon="-1.1129394">
<ele>452</ele>
<time>2017-10-25T17:58:32Z</time>
</trkpt>
<trkpt lat="38.2325950" lon="-1.1126754">
<ele>452</ele>
<time>2017-10-25T17:58:38Z</time>
</trkpt>
<trkpt lat="38.2326546" lon="-1.1124139">
<ele>452</ele>
<time>2017-10-25T17:58:44Z</time>
</trkpt>
<trkpt lat="38.2327939" lon="-1.1121021">
<ele>453</ele>
<time>2017-10-25T17:58:50Z</time>
</trkpt>
<trkpt lat="38.2329442" lon="-1.1118252">
<ele>453</ele>
<time>2017-10-25T17:58:56Z</time>
</trkpt>
<trkpt lat="38.2330588" lon="-1.1114974">
<ele>453</ele>
<time>2017-10-25T17:59:02Z</time>
</trkpt>
<trkpt lat="38.2331692" lon="-1.1111733">
<ele>453</ele>
<time>2017-10-25T17:59:08Z</time>
</trkpt>
<trkpt lat="38.2332948" lon="-1.1108391">
<ele>454</ele>
<time>2017-10-25T17:59:14Z</time>
</trkpt>
<trkpt lat="38.2334358" lon="-1.1105567">
<ele>454</ele>
<time>2017-10-25T17:59:20Z</time>
</trkpt>
<trkpt lat="38.2335524" lon="-1.1101797">
<ele>454</ele>
<time>2017-10-25T17:59:26Z</time>
</trkpt>
<trkpt lat="38.2335851" lon="-1.1098568">
<ele>455</ele>
<time>2017-10-25T17:59:32Z</time>
</trkpt>
<trkpt lat="38.2337849" lon="-1.1095671">
<ele>456</ele>
<time>2017-10-25T17:59:38Z</time>
</trkpt>
<trkpt lat="38.2339208" lon="-1.1092671">
<ele>457</ele>
<time>2017-10-25T17:59:44Z</time>
</trkpt>
<trkpt lat="38.2336778" lon="-1.1091471">
<ele>459</ele>
<time>2017-10-25T17:59:50Z</time>
</trkpt>
<trkpt lat="38.2334293" lon="-1.1096630">
<ele>460</ele>
<time>2017-10-25T17:59:56Z</time>
</trkpt>
<trkpt lat="38.2334456" lon="-1.1104050">
<ele>462</ele>
<time>2017-10-25T18:00:02Z</time>
</trkpt>
<trkpt lat="38.2331691" lon="-1.1106440">
<ele>463</ele>
<time>2017-10-25T18:00:08Z</time>
</trkpt>
<trkpt lat="38.2334532" lon="-1.1101044">
<ele>467</ele>
<time>2017-10-25T18:00:20Z</time>
</trkpt>
<trkpt lat="38.2337078" lon="-1.1098182">
<ele>469</ele>
<time>2017-10-25T18:00:26Z</time>
</trkpt>
<trkpt lat="38.2339170" lon="-1.1095261">
<ele>470</ele>
<time>2017-10-25T18:00:32Z</time>
</trkpt>
<trkpt lat="38.2341968" lon="-1.1092283">
<ele>470</ele>
<time>2017-10-25T18:00:38Z</time>
</trkpt>
<trkpt lat="38.2344595" lon="-1.1089019">
<ele>471</ele>
<time>2017-10-25T18:00:44Z</time>
</trkpt>
<trkpt lat="38.2347047" lon="-1.1085001">
<ele>473</ele>
<time>2017-10-25T18:00:50Z</time>
</trkpt>
<trkpt lat="38.2348614" lon="-1.1081248">
<ele>477</ele>
<time>2017-10-25T18:00:56Z</time>
</trkpt>
<trkpt lat="38.2348026" lon="-1.1078057">
<ele>480</ele>
<time>2017-10-25T18:01:02Z</time>
</trkpt>
<trkpt lat="38.2345258" lon="-1.1078113">
<ele>481</ele>
<time>2017-10-25T18:01:08Z</time>
</trkpt>
<trkpt lat="38.2343442" lon="-1.1084510">
<ele>481</ele>
<time>2017-10-25T18:01:14Z</time>
</trkpt>
<trkpt lat="38.2343502" lon="-1.1092076">
<ele>482</ele>
<time>2017-10-25T18:01:20Z</time>
</trkpt>
<trkpt lat="38.2341872" lon="-1.1098729">
<ele>484</ele>
<time>2017-10-25T18:01:26Z</time>
</trkpt>
<trkpt lat="38.2340085" lon="-1.1103981">
<ele>486</ele>
<time>2017-10-25T18:01:32Z</time>
</trkpt>
<trkpt lat="38.2338159" lon="-1.1103184">
<ele>488</ele>
<time>2017-10-25T18:01:38Z</time>
</trkpt>
<trkpt lat="38.2340385" lon="-1.1099909">
<ele>491</ele>
<time>2017-10-25T18:01:44Z</time>
</trkpt>
<trkpt lat="38.2343329" lon="-1.1096814">
<ele>493</ele>
<time>2017-10-25T18:01:50Z</time>
</trkpt>
<trkpt lat="38.2345874" lon="-1.1094218">
<ele>495</ele>
<time>2017-10-25T18:01:56Z</time>
</trkpt>
<trkpt lat="38.2348226" lon="-1.1091058">
<ele>497</ele>
<time>2017-10-25T18:02:02Z</time>
</trkpt>
<trkpt lat="38.2351006" lon="-1.1087545">
<ele>498</ele>
<time>2017-10-25T18:02:08Z</time>
</trkpt>
<trkpt lat="38.2353644" lon="-1.1083657">
<ele>499</ele>
<time>2017-10-25T18:02:14Z</time>
</trkpt>
<trkpt lat="38.2355825" lon="-1.1079636">
<ele>501</ele>
<time>2017-10-25T18:02:20Z</time>
</trkpt>
<trkpt lat="38.2358838" lon="-1.1076274">
<ele>503</ele>
<time>2017-10-25T18:02:26Z</time>
</trkpt>
<trkpt lat="38.2362198" lon="-1.1072891">
<ele>506</ele>
<time>2017-10-25T18:02:32Z</time>
</trkpt>
<trkpt lat="38.2364455" lon="-1.1069635">
<ele>507</ele>
<time>2017-10-25T18:02:38Z</time>
</trkpt>
<trkpt lat="38.2367022" lon="-1.1067045">
<ele>509</ele>
<time>2017-10-25T18:02:44Z</time>
</trkpt>
<trkpt lat="38.2369562" lon="-1.1063439">
<ele>512</ele>
<time>2017-10-25T18:02:50Z</time>
</trkpt>
<trkpt lat="38.2373237" lon="-1.1060560">
<ele>512</ele>
<time>2017-10-25T18:02:56Z</time>
</trkpt>
<trkpt lat="38.2373259" lon="-1.1058074">
<ele>512</ele>
<time>2017-10-25T18:03:02Z</time>
</trkpt>
<trkpt lat="38.2370466" lon="-1.1060840">
<ele>514</ele>
<time>2017-10-25T18:03:08Z</time>
</trkpt>
<trkpt lat="38.2369291" lon="-1.1066269">
<ele>516</ele>
<time>2017-10-25T18:03:14Z</time>
</trkpt>
<trkpt lat="38.2367019" lon="-1.1070073">
<ele>518</ele>
<time>2017-10-25T18:03:20Z</time>
</trkpt>
<trkpt lat="38.2364357" lon="-1.1072586">
<ele>519</ele>
<time>2017-10-25T18:03:26Z</time>
</trkpt>
<trkpt lat="38.2361468" lon="-1.1075807">
<ele>520</ele>
<time>2017-10-25T18:03:32Z</time>
</trkpt>
<trkpt lat="38.2359601" lon="-1.1080920">
<ele>523</ele>
<time>2017-10-25T18:03:38Z</time>
</trkpt>
<trkpt lat="38.2357044" lon="-1.1082238">
<ele>525</ele>
<time>2017-10-25T18:03:44Z</time>
</trkpt>
<trkpt lat="38.2355136" lon="-1.1080366">
<ele>529</ele>
<time>2017-10-25T18:03:50Z</time>
</trkpt>
<trkpt lat="38.2355946" lon="-1.1076726">
<ele>534</ele>
<time>2017-10-25T18:03:56Z</time>
</trkpt>
<trkpt lat="38.2360766" lon="-1.1076261">
<ele>544</ele>
<time>2017-10-25T18:04:02Z</time>
</trkpt>
<trkpt lat="38.2362752" lon="-1.1082940">
<ele>550</ele>
<time>2017-10-25T18:04:08Z</time>
</trkpt>
<trkpt lat="38.2359976" lon="-1.1085221">
<ele>563</ele>
<time>2017-10-25T18:04:14Z</time>
</trkpt>
<trkpt lat="38.2357361" lon="-1.1084464">
<ele>575</ele>
<time>2017-10-25T18:04:20Z</time>
</trkpt>
<trkpt lat="38.2354629" lon="-1.1083568">
<ele>582</ele>
<time>2017-10-25T18:04:26Z</time>
</trkpt>
<trkpt lat="38.2353824" lon="-1.1081531">
<ele>585</ele>
<time>2017-10-25T18:04:32Z</time>
</trkpt>
<trkpt lat="38.2355414" lon="-1.1078496">
<ele>592</ele>
<time>2017-10-25T18:04:38Z</time>
</trkpt>
<trkpt lat="38.2357696" lon="-1.1075535">
<ele>594</ele>
<time>2017-10-25T18:04:44Z</time>
</trkpt>
<trkpt lat="38.2362956" lon="-1.1074123">
<ele>595</ele>
<time>2017-10-25T18:04:50Z</time>
</trkpt>
<trkpt lat="38.2367427" lon="-1.1071117">
<ele>601</ele>
<time>2017-10-25T18:04:56Z</time>
</trkpt>
<trkpt lat="38.2368527" lon="-1.1066894">
<ele>609</ele>
<time>2017-10-25T18:05:02Z</time>
</trkpt>
<trkpt lat="38.2367475" lon="-1.1065037">
<ele>614</ele>
<time>2017-10-25T18:05:08Z</time>
</trkpt>
<trkpt lat="38.2365496" lon="-1.1066210">
<ele>619</ele>
<time>2017-10-25T18:05:14Z</time>
</trkpt>
<trkpt lat="38.2363385" lon="-1.1069414">
<ele>625</ele>
<time>2017-10-25T18:05:20Z</time>
</trkpt>
<trkpt lat="38.2361713" lon="-1.1073908">
<ele>632</ele>
<time>2017-10-25T18:05:26Z</time>
</trkpt>
<trkpt lat="38.2360073" lon="-1.1079118">
<ele>638</ele>
<time>2017-10-25T18:05:32Z</time>
</trkpt>
<trkpt lat="38.2359408" lon="-1.1085944">
<ele>642</ele>
<time>2017-10-25T18:05:38Z</time>
</trkpt>
<trkpt lat="38.2357081" lon="-1.1089982">
<ele>645</ele>
<time>2017-10-25T18:05:44Z</time>
</trkpt>
<trkpt lat="38.2356702" lon="-1.1087568">
<ele>648</ele>
<time>2017-10-25T18:05:50Z</time>
</trkpt>
<trkpt lat="38.2359125" lon="-1.1083997">
<ele>653</ele>
<time>2017-10-25T18:05:56Z</time>
</trkpt>
<trkpt lat="38.2361034" lon="-1.1080532">
<ele>660</ele>
<time>2017-10-25T18:06:02Z</time>
</trkpt>
<trkpt lat="38.2362068" lon="-1.1076791">
<ele>665</ele>
<time>2017-10-25T18:06:08Z</time>
</trkpt>
<trkpt lat="38.2364291" lon="-1.1073409">
<ele>669</ele>
<time>2017-10-25T18:06:14Z</time>
</trkpt>
<trkpt lat="38.2363609" lon="-1.1070741">
<ele>669</ele>
<time>2017-10-25T18:06:19Z</time>
</trkpt>
<trkpt lat="38.2360986" lon="-1.1071965">
<ele>669</ele>
<time>2017-10-25T18:06:25Z</time>
</trkpt>
<trkpt lat="38.2359347" lon="-1.1077732">
<ele>670</ele>
<time>2017-10-25T18:06:31Z</time>
</trkpt>
<trkpt lat="38.2359955" lon="-1.1084931">
<ele>671</ele>
<time>2017-10-25T18:06:37Z</time>
</trkpt>
<trkpt lat="38.2364724" lon="-1.1090637">
<ele>674</ele>
<time>2017-10-25T18:06:43Z</time>
</trkpt>
<trkpt lat="38.2370219" lon="-1.1090307">
<ele>676</ele>
<time>2017-10-25T18:06:49Z</time>
</trkpt>
<trkpt lat="38.2371911" lon="-1.1086899">
<ele>678</ele>
<time>2017-10-25T18:06:55Z</time>
</trkpt>
<trkpt lat="38.2370936" lon="-1.1084482">
<ele>678</ele>
<time>2017-10-25T18:07:01Z</time>
</trkpt>
<trkpt lat="38.2369405" lon="-1.1082300">
<ele>680</ele>
<time>2017-10-25T18:07:07Z</time>
</trkpt>
<trkpt lat="38.2367950" lon="-1.1080198">
<ele>680</ele>
<time>2017-10-25T18:07:13Z</time>
</trkpt>
<trkpt lat="38.2366787" lon="-1.1077789">
<ele>682</ele>
<time>2017-10-25T18:07:19Z</time>
</trkpt>
<trkpt lat="38.2365935" lon="-1.1074716">
<ele>683</ele>
<time>2017-10-25T18:07:25Z</time>
</trkpt>
<trkpt lat="38.2365396" lon="-1.1071375">
<ele>684</ele>
<time>2017-10-25T18:07:31Z</time>
</trkpt>
<trkpt lat="38.2363891" lon="-1.1069188">
<ele>684</ele>
<time>2017-10-25T18:07:37Z</time>
</trkpt>
<trkpt lat="38.2361673" lon="-1.1068533">
<ele>684</ele>
<time>2017-10-25T18:07:43Z</time>
</trkpt>
<trkpt lat="38.2360269" lon="-1.1066796">
<ele>684</ele>
<time>2017-10-25T18:07:49Z</time>
</trkpt>
<trkpt lat="38.2362483" lon="-1.1062339">
<ele>685</ele>
<time>2017-10-25T18:07:55Z</time>
</trkpt>
<trkpt lat="38.2365374" lon="-1.1058162">
<ele>684</ele>
<time>2017-10-25T18:08:01Z</time>
</trkpt>
<trkpt lat="38.2367649" lon="-1.1053723">
<ele>684</ele>
<time>2017-10-25T18:08:07Z</time>
</trkpt>
<trkpt lat="38.2369436" lon="-1.1049298">
<ele>684</ele>
<time>2017-10-25T18:08:13Z</time>
</trkpt>
<trkpt lat="38.2369820" lon="-1.1045516">
<ele>684</ele>
<time>2017-10-25T18:08:19Z</time>
</trkpt>
<trkpt lat="38.2367589" lon="-1.1044753">
<ele>683</ele>
<time>2017-10-25T18:08:25Z</time>
</trkpt>
<trkpt lat="38.2365114" lon="-1.1047919">
<ele>681</ele>
<time>2017-10-25T18:08:31Z</time>
</trkpt>
<trkpt lat="38.2363510" lon="-1.1052918">
<ele>679</ele>
<time>2017-10-25T18:08:37Z</time>
</trkpt>
<trkpt lat="38.2362919" lon="-1.1059196">
<ele>677</ele>
<time>2017-10-25T18:08:43Z</time>
</trkpt>
<trkpt lat="38.2361464" lon="-1.1064992">
<ele>676</ele>
<time>2017-10-25T18:08:49Z</time>
</trkpt>
<trkpt lat="38.2360009" lon="-1.1070613">
<ele>674</ele>
<time>2017-10-25T18:08:55Z</time>
</trkpt>
<trkpt lat="38.2358719" lon="-1.1076723">
<ele>673</ele>
<time>2017-10-25T18:09:01Z</time>
</trkpt>
<trkpt lat="38.2357772" lon="-1.1083130">
<ele>673</ele>
<time>2017-10-25T18:09:07Z</time>
</trkpt>
<trkpt lat="38.2355424" lon="-1.1087860">
<ele>671</ele>
<time>2017-10-25T18:09:13Z</time>
</trkpt>
<trkpt lat="38.2353100" lon="-1.1092334">
<ele>669</ele>
<time>2017-10-25T18:09:19Z</time>
</trkpt>
<trkpt lat="38.2351382" lon="-1.1097784">
<ele>667</ele>
<time>2017-10-25T18:09:25Z</time>
</trkpt>
<trkpt lat="38.2349072" lon="-1.1102938">
<ele>665</ele>
<time>2017-10-25T18:09:31Z</time>
</trkpt>
<trkpt lat="38.2348548" lon="-1.1110059">
<ele>663</ele>
<time>2017-10-25T18:09:37Z</time>
</trkpt>
<trkpt lat="38.2346780" lon="-1.1116440">
<ele>661</ele>
<time>2017-10-25T18:09:43Z</time>
</trkpt>
<trkpt lat="38.2344395" lon="-1.1117404">
<ele>658</ele>
<time>2017-10-25T18:09:49Z</time>
</trkpt>
<trkpt lat="38.2345621" lon="-1.1113842">
<ele>654</ele>
<time>2017-10-25T18:09:55Z</time>
</trkpt>
<trkpt lat="38.2347304" lon="-1.1110681">
<ele>653</ele>
<time>2017-10-25T18:10:01Z</time>
</trkpt>
<trkpt lat="38.2350109" lon="-1.1107305">
<ele>651</ele>
<time>2017-10-25T18:10:07Z</time>
</trkpt>
<trkpt lat="38.2352200" lon="-1.1103690">
<ele>646</ele>
<time>2017-10-25T18:10:13Z</time>
</trkpt>
<trkpt lat="38.2353728" lon="-1.1100014">
<ele>642</ele>
<time>2017-10-25T18:10:19Z</time>
</trkpt>
<trkpt lat="38.2356212" lon="-1.1095815">
<ele>640</ele>
<time>2017-10-25T18:10:25Z</time>
</trkpt>
<trkpt lat="38.2358397" lon="-1.1091790">
<ele>637</ele>
<time>2017-10-25T18:10:31Z</time>
</trkpt>
<trkpt lat="38.2360037" lon="-1.1087748">
<ele>634</ele>
<time>2017-10-25T18:10:37Z</time>
</trkpt>
<trkpt lat="38.2361405" lon="-1.1083191">
<ele>631</ele>
<time>2017-10-25T18:10:43Z</time>
</trkpt>
<trkpt lat="38.2365596" lon="-1.1074291">
<ele>626</ele>
<time>2017-10-25T18:10:55Z</time>
</trkpt>
<trkpt lat="38.2368125" lon="-1.1069870">
<ele>624</ele>
<time>2017-10-25T18:11:01Z</time>
</trkpt>
<trkpt lat="38.2370094" lon="-1.1064989">
<ele>622</ele>
<time>2017-10-25T18:11:07Z</time>
</trkpt>
<trkpt lat="38.2371389" lon="-1.1060685">
<ele>620</ele>
<time>2017-10-25T18:11:13Z</time>
</trkpt>
<trkpt lat="38.2371204" lon="-1.1056589">
<ele>618</ele>
<time>2017-10-25T18:11:19Z</time>
</trkpt>
<trkpt lat="38.2371282" lon="-1.1052436">
<ele>616</ele>
<time>2017-10-25T18:11:25Z</time>
</trkpt>
<trkpt lat="38.2371599" lon="-1.1048592">
<ele>614</ele>
<time>2017-10-25T18:11:31Z</time>
</trkpt>
<trkpt lat="38.2371860" lon="-1.1044542">
<ele>612</ele>
<time>2017-10-25T18:11:37Z</time>
</trkpt>
<trkpt lat="38.2371894" lon="-1.1040424">
<ele>611</ele>
<time>2017-10-25T18:11:43Z</time>
</trkpt>
<trkpt lat="38.2371322" lon="-1.1037118">
<ele>612</ele>
<time>2017-10-25T18:11:49Z</time>
</trkpt>
<trkpt lat="38.2369439" lon="-1.1034641">
<ele>613</ele>
<time>2017-10-25T18:11:55Z</time>
</trkpt>
<trkpt lat="38.2366512" lon="-1.1034580">
<ele>613</ele>
<time>2017-10-25T18:12:01Z</time>
</trkpt>
<trkpt lat="38.2363081" lon="-1.1036926">
<ele>612</ele>
<time>2017-10-25T18:12:07Z</time>
</trkpt>
<trkpt lat="38.2359959" lon="-1.1039427">
<ele>611</ele>
<time>2017-10-25T18:12:13Z</time>
</trkpt>
<trkpt lat="38.2357362" lon="-1.1043652">
<ele>609</ele>
<time>2017-10-25T18:12:19Z</time>
</trkpt>
<trkpt lat="38.2354695" lon="-1.1048321">
<ele>607</ele>
<time>2017-10-25T18:12:25Z</time>
</trkpt>
<trkpt lat="38.2352259" lon="-1.1053144">
<ele>606</ele>
<time>2017-10-25T18:12:31Z</time>
</trkpt>
<trkpt lat="38.2349730" lon="-1.1057693">
<ele>603</ele>
<time>2017-10-25T18:12:37Z</time>
</trkpt>
<trkpt lat="38.2348732" lon="-1.1064546">
<ele>601</ele>
<time>2017-10-25T18:12:43Z</time>
</trkpt>
<trkpt lat="38.2348685" lon="-1.1072111">
<ele>599</ele>
<time>2017-10-25T18:12:49Z</time>
</trkpt>
<trkpt lat="38.2349419" lon="-1.1079931">
<ele>597</ele>
<time>2017-10-25T18:12:55Z</time>
</trkpt>
<trkpt lat="38.2350130" lon="-1.1087581">
<ele>596</ele>
<time>2017-10-25T18:13:01Z</time>
</trkpt>
<trkpt lat="38.2350452" lon="-1.1095027">
<ele>595</ele>
<time>2017-10-25T18:13:07Z</time>
</trkpt>
<trkpt lat="38.2349900" lon="-1.1102352">
<ele>592</ele>
<time>2017-10-25T18:13:13Z</time>
</trkpt>
<trkpt lat="38.2348742" lon="-1.1109127">
<ele>590</ele>
<time>2017-10-25T18:13:19Z</time>
</trkpt>
<trkpt lat="38.2345949" lon="-1.1112149">
<ele>589</ele>
<time>2017-10-25T18:13:25Z</time>
</trkpt>
<trkpt lat="38.2346236" lon="-1.1109651">
<ele>588</ele>
<time>2017-10-25T18:13:31Z</time>
</trkpt>
<trkpt lat="38.2350634" lon="-1.1107811">
<ele>585</ele>
<time>2017-10-25T18:13:37Z</time>
</trkpt>
<trkpt lat="38.2352425" lon="-1.1103876">
<ele>584</ele>
<time>2017-10-25T18:13:43Z</time>
</trkpt>
<trkpt lat="38.2352384" lon="-1.1099859">
<ele>585</ele>
<time>2017-10-25T18:13:49Z</time>
</trkpt>
<trkpt lat="38.2353944" lon="-1.1096063">
<ele>583</ele>
<time>2017-10-25T18:13:55Z</time>
</trkpt>
<trkpt lat="38.2357063" lon="-1.1092726">
<ele>581</ele>
<time>2017-10-25T18:14:01Z</time>
</trkpt>
<trkpt lat="38.2359579" lon="-1.1089173">
<ele>580</ele>
<time>2017-10-25T18:14:07Z</time>
</trkpt>
<trkpt lat="38.2362387" lon="-1.1085487">
<ele>581</ele>
<time>2017-10-25T18:14:13Z</time>
</trkpt>
<trkpt lat="38.2363843" lon="-1.1081487">
<ele>581</ele>
<time>2017-10-25T18:14:19Z</time>
</trkpt>
<trkpt lat="38.2365016" lon="-1.1077865">
<ele>581</ele>
<time>2017-10-25T18:14:25Z</time>
</trkpt>
<trkpt lat="38.2367186" lon="-1.1073901">
<ele>581</ele>
<time>2017-10-25T18:14:31Z</time>
</trkpt>
<trkpt lat="38.2367350" lon="-1.1070312">
<ele>581</ele>
<time>2017-10-25T18:14:37Z</time>
</trkpt>
<trkpt lat="38.2364725" lon="-1.1069260">
<ele>581</ele>
<time>2017-10-25T18:14:43Z</time>
</trkpt>
<trkpt lat="38.2361607" lon="-1.1072463">
<ele>582</ele>
<time>2017-10-25T18:14:49Z</time>
</trkpt>
<trkpt lat="38.2359221" lon="-1.1077126">
<ele>584</ele>
<time>2017-10-25T18:14:55Z</time>
</trkpt>
<trkpt lat="38.2354142" lon="-1.1081813">
<ele>587</ele>
<time>2017-10-25T18:15:07Z</time>
</trkpt>
<trkpt lat="38.2355088" lon="-1.1077837">
<ele>588</ele>
<time>2017-10-25T18:15:13Z</time>
</trkpt>
<trkpt lat="38.2356573" lon="-1.1073878">
<ele>589</ele>
<time>2017-10-25T18:15:19Z</time>
</trkpt>
<trkpt lat="38.2360045" lon="-1.1070270">
<ele>590</ele>
<time>2017-10-25T18:15:25Z</time>
</trkpt>
<trkpt lat="38.2365036" lon="-1.1073343">
<ele>594</ele>
<time>2017-10-25T18:15:31Z</time>
</trkpt>
<trkpt lat="38.2365097" lon="-1.1079922">
<ele>597</ele>
<time>2017-10-25T18:15:37Z</time>
</trkpt>
<trkpt lat="38.2362337" lon="-1.1084310">
<ele>599</ele>
<time>2017-10-25T18:15:43Z</time>
</trkpt>
<trkpt lat="38.2359696" lon="-1.1085489">
<ele>599</ele>
<time>2017-10-25T18:15:49Z</time>
</trkpt>
<trkpt lat="38.2358863" lon="-1.1082641">
<ele>599</ele>
<time>2017-10-25T18:15:55Z</time>
</trkpt>
<trkpt lat="38.2358420" lon="-1.1079648">
<ele>599</ele>
<time>2017-10-25T18:16:01Z</time>
</trkpt>
<trkpt lat="38.2358763" lon="-1.1076056">
<ele>602</ele>
<time>2017-10-25T18:16:07Z</time>
</trkpt>
<trkpt lat="38.2360291" lon="-1.1072287">
<ele>605</ele>
<time>2017-10-25T18:16:13Z</time>
</trkpt>
<trkpt lat="38.2363065" lon="-1.1068878">
<ele>609</ele>
<time>2017-10-25T18:16:19Z</time>
</trkpt>
<trkpt lat="38.2362527" lon="-1.1065142">
<ele>612</ele>
<time>2017-10-25T18:16:25Z</time>
</trkpt>
<trkpt lat="38.2360307" lon="-1.1064000">
<ele>612</ele>
<time>2017-10-25T18:16:31Z</time>
</trkpt>
<trkpt lat="38.2357257" lon="-1.1067515">
<ele>613</ele>
<time>2017-10-25T18:16:37Z</time>
</trkpt>
<trkpt lat="38.2356483" lon="-1.1073969">
<ele>613</ele>
<time>2017-10-25T18:16:43Z</time>
</trkpt>
<trkpt lat="38.2358306" lon="-1.1080704">
<ele>614</ele>
<time>2017-10-25T18:16:49Z</time>
</trkpt>
<trkpt lat="38.2363830" lon="-1.1082722">
<ele>615</ele>
<time>2017-10-25T18:16:55Z</time>
</trkpt>
<trkpt lat="38.2366007" lon="-1.1079147">
<ele>617</ele>
<time>2017-10-25T18:17:01Z</time>
</trkpt>
<trkpt lat="38.2366128" lon="-1.1075436">
<ele>619</ele>
<time>2017-10-25T18:17:07Z</time>
</trkpt>
<trkpt lat="38.2366113" lon="-1.1071601">
<ele>621</ele>
<time>2017-10-25T18:17:13Z</time>
</trkpt>
<trkpt lat="38.2364902" lon="-1.1068759">
<ele>622</ele>
<time>2017-10-25T18:17:19Z</time>
</trkpt>
<trkpt lat="38.2362715" lon="-1.1067790">
<ele>621</ele>
<time>2017-10-25T18:17:25Z</time>
</trkpt>
<trkpt lat="38.2359680" lon="-1.1070244">
<ele>619</ele>
<time>2017-10-25T18:17:31Z</time>
</trkpt>
<trkpt lat="38.2359966" lon="-1.1076736">
<ele>618</ele>
<time>2017-10-25T18:17:37Z</time>
</trkpt>
<trkpt lat="38.2365198" lon="-1.1080653">
<ele>618</ele>
<time>2017-10-25T18:17:43Z</time>
</trkpt>
<trkpt lat="38.2370437" lon="-1.1079075">
<ele>619</ele>
<time>2017-10-25T18:17:49Z</time>
</trkpt>
<trkpt lat="38.2374378" lon="-1.1075762">
<ele>621</ele>
<time>2017-10-25T18:17:55Z</time>
</trkpt>
<trkpt lat="38.2377113" lon="-1.1071667">
<ele>620</ele>
<time>2017-10-25T18:18:01Z</time>
</trkpt>
<trkpt lat="38.2377412" lon="-1.1068154">
<ele>621</ele>
<time>2017-10-25T18:18:07Z</time>
</trkpt>
<trkpt lat="38.2376316" lon="-1.1065695">
<ele>621</ele>
<time>2017-10-25T18:18:13Z</time>
</trkpt>
<trkpt lat="38.2374518" lon="-1.1063495">
<ele>622</ele>
<time>2017-10-25T18:18:20Z</time>
</trkpt>
<trkpt lat="38.2373655" lon="-1.1060462">
<ele>623</ele>
<time>2017-10-25T18:18:26Z</time>
</trkpt>
<trkpt lat="38.2373645" lon="-1.1056398">
<ele>625</ele>
<time>2017-10-25T18:18:32Z</time>
</trkpt>
<trkpt lat="38.2373510" lon="-1.1052878">
<ele>626</ele>
<time>2017-10-25T18:18:38Z</time>
</trkpt>
<trkpt lat="38.2372509" lon="-1.1049911">
<ele>626</ele>
<time>2017-10-25T18:18:44Z</time>
</trkpt>
<trkpt lat="38.2369653" lon="-1.1050393">
<ele>627</ele>
<time>2017-10-25T18:18:50Z</time>
</trkpt>
<trkpt lat="38.2367006" lon="-1.1051361">
<ele>627</ele>
<time>2017-10-25T18:18:56Z</time>
</trkpt>
<trkpt lat="38.2364276" lon="-1.1053243">
<ele>626</ele>
<time>2017-10-25T18:19:02Z</time>
</trkpt>
<trkpt lat="38.2361868" lon="-1.1055895">
<ele>625</ele>
<time>2017-10-25T18:19:08Z</time>
</trkpt>
<trkpt lat="38.2359310" lon="-1.1058544">
<ele>624</ele>
<time>2017-10-25T18:19:14Z</time>
</trkpt>
<trkpt lat="38.2356953" lon="-1.1056799">
<ele>622</ele>
<time>2017-10-25T18:19:20Z</time>
</trkpt>
<trkpt lat="38.2357645" lon="-1.1051877">
<ele>619</ele>
<time>2017-10-25T18:19:26Z</time>
</trkpt>
<trkpt lat="38.2360624" lon="-1.1046886">
<ele>618</ele>
<time>2017-10-25T18:19:32Z</time>
</trkpt>
<trkpt lat="38.2365449" lon="-1.1043916">
<ele>616</ele>
<time>2017-10-25T18:19:38Z</time>
</trkpt>
<trkpt lat="38.2370977" lon="-1.1047692">
<ele>615</ele>
<time>2017-10-25T18:19:44Z</time>
</trkpt>
<trkpt lat="38.2372286" lon="-1.1054329">
<ele>614</ele>
<time>2017-10-25T18:19:50Z</time>
</trkpt>
<trkpt lat="38.2370480" lon="-1.1058883">
<ele>614</ele>
<time>2017-10-25T18:19:56Z</time>
</trkpt>
<trkpt lat="38.2367861" lon="-1.1062207">
<ele>613</ele>
<time>2017-10-25T18:20:02Z</time>
</trkpt>
<trkpt lat="38.2365773" lon="-1.1067124">
<ele>612</ele>
<time>2017-10-25T18:20:08Z</time>
</trkpt>
<trkpt lat="38.2362952" lon="-1.1071548">
<ele>612</ele>
<time>2017-10-25T18:20:14Z</time>
</trkpt>
<trkpt lat="38.2360707" lon="-1.1076216">
<ele>612</ele>
<time>2017-10-25T18:20:20Z</time>
</trkpt>
<trkpt lat="38.2358417" lon="-1.1080989">
<ele>610</ele>
<time>2017-10-25T18:20:26Z</time>
</trkpt>
<trkpt lat="38.2357545" lon="-1.1086305">
<ele>609</ele>
<time>2017-10-25T18:20:32Z</time>
</trkpt>
<trkpt lat="38.2355125" lon="-1.1089894">
<ele>609</ele>
<time>2017-10-25T18:20:38Z</time>
</trkpt>
<trkpt lat="38.2352810" lon="-1.1087746">
<ele>608</ele>
<time>2017-10-25T18:20:44Z</time>
</trkpt>
<trkpt lat="38.2355988" lon="-1.1083768">
<ele>608</ele>
<time>2017-10-25T18:20:50Z</time>
</trkpt>
<trkpt lat="38.2361240" lon="-1.1086879">
<ele>607</ele>
<time>2017-10-25T18:20:56Z</time>
</trkpt>
<trkpt lat="38.2361633" lon="-1.1093528">
<ele>607</ele>
<time>2017-10-25T18:21:02Z</time>
</trkpt>
<trkpt lat="38.2358661" lon="-1.1096046">
<ele>607</ele>
<time>2017-10-25T18:21:08Z</time>
</trkpt>
<trkpt lat="38.2355973" lon="-1.1094754">
<ele>607</ele>
<time>2017-10-25T18:21:14Z</time>
</trkpt>
<trkpt lat="38.2354490" lon="-1.1091663">
<ele>607</ele>
<time>2017-10-25T18:21:20Z</time>
</trkpt>
<trkpt lat="38.2357714" lon="-1.1087906">
<ele>606</ele>
<time>2017-10-25T18:21:26Z</time>
</trkpt>
<trkpt lat="38.2363116" lon="-1.1091775">
<ele>605</ele>
<time>2017-10-25T18:21:32Z</time>
</trkpt>
<trkpt lat="38.2362542" lon="-1.1097799">
<ele>606</ele>
<time>2017-10-25T18:21:38Z</time>
</trkpt>
<trkpt lat="38.2359549" lon="-1.1100193">
<ele>606</ele>
<time>2017-10-25T18:21:44Z</time>
</trkpt>
<trkpt lat="38.2356665" lon="-1.1101059">
<ele>605</ele>
<time>2017-10-25T18:21:50Z</time>
</trkpt>
<trkpt lat="38.2353807" lon="-1.1101064">
<ele>605</ele>
<time>2017-10-25T18:21:56Z</time>
</trkpt>
<trkpt lat="38.2352304" lon="-1.1098556">
<ele>605</ele>
<time>2017-10-25T18:22:02Z</time>
</trkpt>
<trkpt lat="38.2353142" lon="-1.1094483">
<ele>604</ele>
<time>2017-10-25T18:22:08Z</time>
</trkpt>
<trkpt lat="38.2354934" lon="-1.1089657">
<ele>603</ele>
<time>2017-10-25T18:22:14Z</time>
</trkpt>
<trkpt lat="38.2355552" lon="-1.1085009">
<ele>602</ele>
<time>2017-10-25T18:22:20Z</time>
</trkpt>
<trkpt lat="38.2355292" lon="-1.1080828">
<ele>602</ele>
<time>2017-10-25T18:22:26Z</time>
</trkpt>
<trkpt lat="38.2356124" lon="-1.1076462">
<ele>602</ele>
<time>2017-10-25T18:22:32Z</time>
</trkpt>
<trkpt lat="38.2360178" lon="-1.1072193">
<ele>601</ele>
<time>2017-10-25T18:22:38Z</time>
</trkpt>
<trkpt lat="38.2364160" lon="-1.1068062">
<ele>601</ele>
<time>2017-10-25T18:22:44Z</time>
</trkpt>
<trkpt lat="38.2367340" lon="-1.1063847">
<ele>601</ele>
<time>2017-10-25T18:22:50Z</time>
</trkpt>
<trkpt lat="38.2368960" lon="-1.1059689">
<ele>601</ele>
<time>2017-10-25T18:22:56Z</time>
</trkpt>
<trkpt lat="38.2369928" lon="-1.1055066">
<ele>600</ele>
<time>2017-10-25T18:23:02Z</time>
</trkpt>
<trkpt lat="38.2370331" lon="-1.1050335">
<ele>600</ele>
<time>2017-10-25T18:23:08Z</time>
</trkpt>
<trkpt lat="38.2370307" lon="-1.1045449">
<ele>599</ele>
<time>2017-10-25T18:23:14Z</time>
</trkpt>
<trkpt lat="38.2369933" lon="-1.1040895">
<ele>598</ele>
<time>2017-10-25T18:23:20Z</time>
</trkpt>
<trkpt lat="38.2368973" lon="-1.1036654">
<ele>597</ele>
<time>2017-10-25T18:23:26Z</time>
</trkpt>
<trkpt lat="38.2367874" lon="-1.1032726">
<ele>597</ele>
<time>2017-10-25T18:23:32Z</time>
</trkpt>
<trkpt lat="38.2368160" lon="-1.1028011">
<ele>597</ele>
<time>2017-10-25T18:23:38Z</time>
</trkpt>
<trkpt lat="38.2367742" lon="-1.1023502">
<ele>597</ele>
<time>2017-10-25T18:23:44Z</time>
</trkpt>
<trkpt lat="38.2367108" lon="-1.1018916">
<ele>595</ele>
<time>2017-10-25T18:23:50Z</time>
</trkpt>
<trkpt lat="38.2366922" lon="-1.1014293">
<ele>592</ele>
<time>2017-10-25T18:23:56Z</time>
</trkpt>
<trkpt lat="38.2368705" lon="-1.1009581">
<ele>590</ele>
<time>2017-10-25T18:24:02Z</time>
</trkpt>
<trkpt lat="38.2370809" lon="-1.1004564">
<ele>588</ele>
<time>2017-10-25T18:24:08Z</time>
</trkpt>
<trkpt lat="38.2373034" lon="-1.0999584">
<ele>587</ele>
<time>2017-10-25T18:24:14Z</time>
</trkpt>
<trkpt lat="38.2375192" lon="-1.0994962">
<ele>585</ele>
<time>2017-10-25T18:24:20Z</time>
</trkpt>
<trkpt lat="38.2377145" lon="-1.0990269">
<ele>582</ele>
<time>2017-10-25T18:24:26Z</time>
</trkpt>
<trkpt lat="38.2378372" lon="-1.0985663">
<ele>580</ele>
<time>2017-10-25T18:24:32Z</time>
</trkpt>
<trkpt lat="38.2381034" lon="-1.0981064">
<ele>577</ele>
<time>2017-10-25T18:24:38Z</time>
</trkpt>
<trkpt lat="38.2384357" lon="-1.0977536">
<ele>574</ele>
<time>2017-10-25T18:24:44Z</time>
</trkpt>
<trkpt lat="38.2383175" lon="-1.0975834">
<ele>570</ele>
<time>2017-10-25T18:24:50Z</time>
</trkpt>
<trkpt lat="38.2380065" lon="-1.0980858">
<ele>565</ele>
<time>2017-10-25T18:24:56Z</time>
</trkpt>
<trkpt lat="38.2378378" lon="-1.0987620">
<ele>557</ele>
<time>2017-10-25T18:25:02Z</time>
</trkpt>
<trkpt lat="38.2378067" lon="-1.0995368">
<ele>552</ele>
<time>2017-10-25T18:25:08Z</time>
</trkpt>
<trkpt lat="38.2378300" lon="-1.1003116">
<ele>549</ele>
<time>2017-10-25T18:25:14Z</time>
</trkpt>
<trkpt lat="38.2378234" lon="-1.1010879">
<ele>546</ele>
<time>2017-10-25T18:25:20Z</time>
</trkpt>
<trkpt lat="38.2378618" lon="-1.1018478">
<ele>540</ele>
<time>2017-10-25T18:25:26Z</time>
</trkpt>
<trkpt lat="38.2378761" lon="-1.1025480">
<ele>533</ele>
<time>2017-10-25T18:25:32Z</time>
</trkpt>
<trkpt lat="38.2377581" lon="-1.1032044">
<ele>527</ele>
<time>2017-10-25T18:25:38Z</time>
</trkpt>
<trkpt lat="38.2376071" lon="-1.1038306">
<ele>521</ele>
<time>2017-10-25T18:25:44Z</time>
</trkpt>
<trkpt lat="38.2374331" lon="-1.1044243">
<ele>518</ele>
<time>2017-10-25T18:25:50Z</time>
</trkpt>
<trkpt lat="38.2372421" lon="-1.1050066">
<ele>515</ele>
<time>2017-10-25T18:25:56Z</time>
</trkpt>
<trkpt lat="38.2369604" lon="-1.1054462">
<ele>514</ele>
<time>2017-10-25T18:26:02Z</time>
</trkpt>
<trkpt lat="38.2366161" lon="-1.1057463">
<ele>513</ele>
<time>2017-10-25T18:26:08Z</time>
</trkpt>
<trkpt lat="38.2362953" lon="-1.1061655">
<ele>509</ele>
<time>2017-10-25T18:26:14Z</time>
</trkpt>
<trkpt lat="38.2359828" lon="-1.1065606">
<ele>506</ele>
<time>2017-10-25T18:26:20Z</time>
</trkpt>
<trkpt lat="38.2356752" lon="-1.1069291">
<ele>505</ele>
<time>2017-10-25T18:26:26Z</time>
</trkpt>
<trkpt lat="38.2354275" lon="-1.1073695">
<ele>503</ele>
<time>2017-10-25T18:26:32Z</time>
</trkpt>
<trkpt lat="38.2352157" lon="-1.1078820">
<ele>502</ele>
<time>2017-10-25T18:26:38Z</time>
</trkpt>
<trkpt lat="38.2349344" lon="-1.1083127">
<ele>501</ele>
<time>2017-10-25T18:26:44Z</time>
</trkpt>
<trkpt lat="38.2347443" lon="-1.1088613">
<ele>500</ele>
<time>2017-10-25T18:26:50Z</time>
</trkpt>
<trkpt lat="38.2345765" lon="-1.1094539">
<ele>500</ele>
<time>2017-10-25T18:26:56Z</time>
</trkpt>
<trkpt lat="38.2343550" lon="-1.1093846">
<ele>499</ele>
<time>2017-10-25T18:27:02Z</time>
</trkpt>
<trkpt lat="38.2346558" lon="-1.1090505">
<ele>500</ele>
<time>2017-10-25T18:27:08Z</time>
</trkpt>
<trkpt lat="38.2349672" lon="-1.1087201">
<ele>500</ele>
<time>2017-10-25T18:27:14Z</time>
</trkpt>
<trkpt lat="38.2352487" lon="-1.1083406">
<ele>500</ele>
<time>2017-10-25T18:27:20Z</time>
</trkpt>
<trkpt lat="38.2356362" lon="-1.1080089">
<ele>500</ele>
<time>2017-10-25T18:27:26Z</time>
</trkpt>
<trkpt lat="38.2360324" lon="-1.1076477">
<ele>499</ele>
<time>2017-10-25T18:27:32Z</time>
</trkpt>
<trkpt lat="38.2362565" lon="-1.1072461">
<ele>498</ele>
<time>2017-10-25T18:27:38Z</time>
</trkpt>
<trkpt lat="38.2359647" lon="-1.1072663">
<ele>498</ele>
<time>2017-10-25T18:27:44Z</time>
</trkpt>
<trkpt lat="38.2356907" lon="-1.1076273">
<ele>498</ele>
<time>2017-10-25T18:27:50Z</time>
</trkpt>
<trkpt lat="38.2354431" lon="-1.1079506">
<ele>499</ele>
<time>2017-10-25T18:27:56Z</time>
</trkpt>
<trkpt lat="38.2352102" lon="-1.1082330">
<ele>499</ele>
<time>2017-10-25T18:28:02Z</time>
</trkpt>
<trkpt lat="38.2349565" lon="-1.1086221">
<ele>499</ele>
<time>2017-10-25T18:28:08Z</time>
</trkpt>
<trkpt lat="38.2346742" lon="-1.1090193">
<ele>498</ele>
<time>2017-10-25T18:28:14Z</time>
</trkpt>
<trkpt lat="38.2344953" lon="-1.1096022">
<ele>498</ele>
<time>2017-10-25T18:28:20Z</time>
</trkpt>
<trkpt lat="38.2343030" lon="-1.1101923">
<ele>499</ele>
<time>2017-10-25T18:28:26Z</time>
</trkpt>
<trkpt lat="38.2340232" lon="-1.1104252">
<ele>498</ele>
<time>2017-10-25T18:28:32Z</time>
</trkpt>
<trkpt lat="38.2341751" lon="-1.1100688">
<ele>497</ele>
<time>2017-10-25T18:28:38Z</time>
</trkpt>
<trkpt lat="38.2343542" lon="-1.1096546">
<ele>496</ele>
<time>2017-10-25T18:28:44Z</time>
</trkpt>
<trkpt lat="38.2345683" lon="-1.1092998">
<ele>496</ele>
<time>2017-10-25T18:28:50Z</time>
</trkpt>
<trkpt lat="38.2347922" lon="-1.1089509">
<ele>498</ele>
<time>2017-10-25T18:28:56Z</time>
</trkpt>
<trkpt lat="38.2350122" lon="-1.1086170">
<ele>501</ele>
<time>2017-10-25T18:29:02Z</time>
</trkpt>
<trkpt lat="38.2350186" lon="-1.1082756">
<ele>501</ele>
<time>2017-10-25T18:29:08Z</time>
</trkpt>
<trkpt lat="38.2347237" lon="-1.1086104">
<ele>500</ele>
<time>2017-10-25T18:29:14Z</time>
</trkpt>
<trkpt lat="38.2346231" lon="-1.1092542">
<ele>498</ele>
<time>2017-10-25T18:29:20Z</time>
</trkpt>
<trkpt lat="38.2343321" lon="-1.1097103">
<ele>499</ele>
<time>2017-10-25T18:29:26Z</time>
</trkpt>
<trkpt lat="38.2340753" lon="-1.1102430">
<ele>498</ele>
<time>2017-10-25T18:29:32Z</time>
</trkpt>
<trkpt lat="38.2337227" lon="-1.1106660">
<ele>498</ele>
<time>2017-10-25T18:29:38Z</time>
</trkpt>
<trkpt lat="38.2334186" lon="-1.1110753">
<ele>497</ele>
<time>2017-10-25T18:29:44Z</time>
</trkpt>
<trkpt lat="38.2331310" lon="-1.1115082">
<ele>497</ele>
<time>2017-10-25T18:29:50Z</time>
</trkpt>
<trkpt lat="38.2329148" lon="-1.1120641">
<ele>497</ele>
<time>2017-10-25T18:29:56Z</time>
</trkpt>
<trkpt lat="38.2328097" lon="-1.1127290">
<ele>496</ele>
<time>2017-10-25T18:30:02Z</time>
</trkpt>
<trkpt lat="38.2327613" lon="-1.1134022">
<ele>495</ele>
<time>2017-10-25T18:30:08Z</time>
</trkpt>
<trkpt lat="38.2327318" lon="-1.1140754">
<ele>494</ele>
<time>2017-10-25T18:30:13Z</time>
</trkpt>
<trkpt lat="38.2327515" lon="-1.1147951">
<ele>494</ele>
<time>2017-10-25T18:30:19Z</time>
</trkpt>
<trkpt lat="38.2327812" lon="-1.1154839">
<ele>494</ele>
<time>2017-10-25T18:30:25Z</time>
</trkpt>
<trkpt lat="38.2328885" lon="-1.1161509">
<ele>494</ele>
<time>2017-10-25T18:30:31Z</time>
</trkpt>
<trkpt lat="38.2329429" lon="-1.1168846">
<ele>493</ele>
<time>2017-10-25T18:30:37Z</time>
</trkpt>
<trkpt lat="38.2329785" lon="-1.1175787">
<ele>492</ele>
<time>2017-10-25T18:30:43Z</time>
</trkpt>
<trkpt lat="38.2329365" lon="-1.1182939">
<ele>491</ele>
<time>2017-10-25T18:30:49Z</time>
</trkpt>
<trkpt lat="38.2328716" lon="-1.1190315">
<ele>490</ele>
<time>2017-10-25T18:30:55Z</time>
</trkpt>
<trkpt lat="38.2326322" lon="-1.1196094">
<ele>490</ele>
<time>2017-10-25T18:31:01Z</time>
</trkpt>
<trkpt lat="38.2322883" lon="-1.1199300">
<ele>488</ele>
<time>2017-10-25T18:31:07Z</time>
</trkpt>
<trkpt lat="38.2319522" lon="-1.1203368">
<ele>487</ele>
<time>2017-10-25T18:31:13Z</time>
</trkpt>
<trkpt lat="38.2316100" lon="-1.1207514">
<ele>486</ele>
<time>2017-10-25T18:31:19Z</time>
</trkpt>
<trkpt lat="38.2312630" lon="-1.1211296">
<ele>485</ele>
<time>2017-10-25T18:31:25Z</time>
</trkpt>
<trkpt lat="38.2308951" lon="-1.1212758">
<ele>484</ele>
<time>2017-10-25T18:31:31Z</time>
</trkpt>
<trkpt lat="38.2305220" lon="-1.1215518">
<ele>483</ele>
<time>2017-10-25T18:31:37Z</time>
</trkpt>
<trkpt lat="38.2301886" lon="-1.1218094">
<ele>482</ele>
<time>2017-10-25T18:31:43Z</time>
</trkpt>
<trkpt lat="38.2300146" lon="-1.1215650">
<ele>481</ele>
<time>2017-10-25T18:31:49Z</time>
</trkpt>
<trkpt lat="38.2301976" lon="-1.1211405">
<ele>480</ele>
<time>2017-10-25T18:31:55Z</time>
</trkpt>
<trkpt lat="38.2306342" lon="-1.1209942">
<ele>478</ele>
<time>2017-10-25T18:32:01Z</time>
</trkpt>
<trkpt lat="38.2310879" lon="-1.1209058">
<ele>476</ele>
<time>2017-10-25T18:32:07Z</time>
</trkpt>
<trkpt lat="38.2314798" lon="-1.1207080">
<ele>474</ele>
<time>2017-10-25T18:32:13Z</time>
</trkpt>
<trkpt lat="38.2318064" lon="-1.1204568">
<ele>473</ele>
<time>2017-10-25T18:32:19Z</time>
</trkpt>
<trkpt lat="38.2316365" lon="-1.1203051">
<ele>471</ele>
<time>2017-10-25T18:32:25Z</time>
</trkpt>
<trkpt lat="38.2313285" lon="-1.1208314">
<ele>471</ele>
<time>2017-10-25T18:32:31Z</time>
</trkpt>
<trkpt lat="38.2310295" lon="-1.1212397">
<ele>469</ele>
<time>2017-10-25T18:32:37Z</time>
</trkpt>
<trkpt lat="38.2306950" lon="-1.1215277">
<ele>468</ele>
<time>2017-10-25T18:32:43Z</time>
</trkpt>
<trkpt lat="38.2304067" lon="-1.1217905">
<ele>466</ele>
<time>2017-10-25T18:32:49Z</time>
</trkpt>
<trkpt lat="38.2301787" lon="-1.1216476">
<ele>463</ele>
<time>2017-10-25T18:32:55Z</time>
</trkpt>
<trkpt lat="38.2305129" lon="-1.1213014">
<ele>460</ele>
<time>2017-10-25T18:33:01Z</time>
</trkpt>
<trkpt lat="38.2305091" lon="-1.1209784">
<ele>455</ele>
<time>2017-10-25T18:33:07Z</time>
</trkpt>
<trkpt lat="38.2301838" lon="-1.1211802">
<ele>448</ele>
<time>2017-10-25T18:33:13Z</time>
</trkpt>
<trkpt lat="38.2299762" lon="-1.1209428">
<ele>444</ele>
<time>2017-10-25T18:33:19Z</time>
</trkpt>
<trkpt lat="38.2297839" lon="-1.1207371">
<ele>440</ele>
<time>2017-10-25T18:33:25Z</time>
</trkpt>
<trkpt lat="38.2297839" lon="-1.1207371">
<ele>439</ele>
<time>2017-10-25T18:33:31Z</time>
</trkpt>
<trkpt lat="38.2297839" lon="-1.1207371">
<ele>438</ele>
<time>2017-10-25T18:33:37Z</time>
</trkpt>
<trkpt lat="38.2297839" lon="-1.1207371">
<ele>438</ele>
<time>2017-10-25T18:33:43Z</time>
</trkpt>
<trkpt lat="38.2297839" lon="-1.1207371">
<ele>438</ele>
<time>2017-10-25T18:33:49Z</time>
</trkpt>
<trkpt lat="" lon="">
<ele></ele>
<time>2017-10-25TZ</time>
</trkpt>
</trkseg>
</trk>
<wpt lat="" lon="">
	<name></name>
	<desc></desc>
	<cmt></cmt>
	<photoid></photoid>
	<type></type>
</wpt>
</gpx>
